Time;durP1;ratioP1;P1;durP2;ratioP2;P2;SDS_P1;SDS_P2;PMS_P1;PMS_P2;Temp;Humidity;BMP_temperature;BMP_pressure;BME280_temperature;BME280_humidity;BME280_pressure;Samples;Min_cycle;Max_cycle;Signal;HPM_P1;HPM_P2
2020/12/12 00:00:00;;;;;;;;;;;6.30;84.10;;;;;;5008997;28;20406;-44
2020/12/12 00:02:30;;;;;;;;;;;6.30;84.10;;;;;;5009354;28;19933;-45
2020/12/12 00:05:00;;;;;;;;;;;6.30;84.10;;;;;;5009053;28;19932;-44
2020/12/12 00:07:26;;;;;;;;;;;6.30;84.20;;;;;;5009716;28;19941;-43
2020/12/12 00:09:52;;;;;;;;;;;6.30;84.20;;;;;;5010833;28;20412;-43
2020/12/12 00:12:19;;;;;;;;;;;6.30;84.20;;;;;;5009273;28;20436;-44
2020/12/12 00:14:45;;;;;;;;;;;6.30;84.20;;;;;;5015301;28;19933;-44
2020/12/12 00:17:11;;;;;;;;;;;6.40;84.30;;;;;;5001838;28;20494;-44
2020/12/12 00:19:37;;;;;;;;;;;6.40;84.30;;;;;;5009556;28;20323;-44
2020/12/12 00:22:03;;;;;;;;;;;6.40;84.40;;;;;;5013750;28;19933;-44
2020/12/12 00:24:30;;;;;;;;;;;6.40;84.40;;;;;;5009772;28;19935;-44
2020/12/12 00:26:56;;;;;;;;;;;6.40;84.30;;;;;;5013422;28;19929;-44
2020/12/12 00:29:23;;;;;;;;;;;6.40;84.40;;;;;;5010697;28;20384;-45
2020/12/12 00:31:53;;;;;;;;;;;6.40;84.40;;;;;;5009374;28;19932;-44
2020/12/12 00:34:19;;;;;;;;;;;6.40;84.30;;;;;;5009358;28;19940;-44
2020/12/12 00:36:49;;;;;;;;;;;6.40;84.40;;;;;;5008501;28;19929;-44
2020/12/12 00:39:18;;;;;;;;;;;6.40;84.50;;;;;;5009920;28;20023;-43
2020/12/12 00:41:45;;;;;;;;;;;6.40;84.40;;;;;;5012107;28;19929;-43
2020/12/12 00:44:12;;;;;;;;;;;6.40;84.40;;;;;;5011454;28;19936;-44
2020/12/12 00:46:39;;;;;;;;;;;6.40;84.40;;;;;;5007417;28;19935;-43
2020/12/12 00:49:06;;;;;;;;;;;6.40;84.50;;;;;;5007876;28;19925;-43
2020/12/12 00:51:32;;;;;;;;;;;6.40;84.60;;;;;;5005486;28;20288;-44
2020/12/12 00:53:58;;;;;;;;;;;6.40;84.60;;;;;;5009613;28;19926;-44
2020/12/12 00:56:24;;;;;;;;;;;6.40;84.60;;;;;;5011644;28;19933;-44
2020/12/12 00:58:51;;;;;;;;;;;6.40;84.60;;;;;;5009122;28;19930;-44
2020/12/12 01:01:18;;;;;;;;;;;6.50;84.60;;;;;;5006694;28;19936;-43
2020/12/12 01:03:44;;;;;;;;;;;6.50;84.50;;;;;;5008032;28;19925;-44
2020/12/12 01:06:15;;;;;;;;;;;6.50;84.50;;;;;;5007784;28;22058;-44
2020/12/12 01:08:41;;;;;;;;;;;6.50;84.60;;;;;;5010685;28;19932;-44
2020/12/12 01:11:08;;;;;;;;;;;6.50;84.60;;;;;;5008963;28;20405;-43
2020/12/12 01:13:34;;;;;;;;;;;6.50;84.70;;;;;;5010828;28;19929;-44
2020/12/12 01:16:07;;;;;;;;;;;6.50;84.70;;;;;;5008220;28;20484;-44
2020/12/12 01:18:33;;;;;;;;;;;6.50;84.70;;;;;;5009404;28;20395;-43
2020/12/12 01:21:00;;;;;;;;;;;6.50;84.70;;;;;;5008160;28;20551;-44
2020/12/12 01:23:26;;;;;;;;;;;6.50;84.70;;;;;;5007616;28;19933;-44
2020/12/12 01:25:52;;;;;;;;;;;6.50;84.70;;;;;;5009828;28;20250;-44
2020/12/12 01:28:21;;;;;;;;;;;6.50;84.70;;;;;;5012760;28;20265;-44
2020/12/12 01:30:48;;;;;;;;;;;6.50;84.70;;;;;;5005083;28;19934;-43
2020/12/12 01:33:14;;;;;;;;;;;6.50;84.80;;;;;;5007448;28;19926;-43
2020/12/12 01:35:41;;;;;;;;;;;6.50;84.80;;;;;;5007423;28;19933;-44
2020/12/12 01:38:08;;;;;;;;;;;6.50;84.80;;;;;;5009723;28;19933;-44
2020/12/12 01:40:34;;;;;;;;;;;6.60;84.70;;;;;;5022944;28;19929;-44
2020/12/12 01:43:00;;;;;;;;;;;6.50;84.80;;;;;;5007744;28;19929;-42
2020/12/12 01:45:26;;;;;;;;;;;6.60;84.70;;;;;;5013262;28;19951;-44
2020/12/12 01:47:52;;;;;;;;;;;6.60;84.70;;;;;;5008429;28;20393;-44
2020/12/12 01:50:20;;;;;;;;;;;6.60;84.70;;;;;;5008153;28;19943;-44
2020/12/12 01:52:50;;;;;;;;;;;6.60;84.70;;;;;;5008521;28;20254;-45
2020/12/12 01:55:20;;;;;;;;;;;6.60;84.70;;;;;;5008971;28;19935;-45
2020/12/12 01:57:53;;;;;;;;;;;6.60;84.70;;;;;;5006914;28;19930;-43
2020/12/12 02:00:20;;;;;;;;;;;6.60;84.70;;;;;;5007079;28;19925;-44
2020/12/12 02:02:47;;;;;;;;;;;6.60;84.70;;;;;;5010135;28;19936;-44
2020/12/12 02:05:38;;;;;;;;;;;6.60;84.60;;;;;;5008201;28;20323;-43
2020/12/12 02:08:09;;;;;;;;;;;6.60;84.70;;;;;;5007730;28;19929;-44
2020/12/12 02:10:36;;;;;;;;;;;6.60;84.80;;;;;;5005694;28;19929;-44
2020/12/12 02:13:02;;;;;;;;;;;6.60;84.70;;;;;;5003348;28;19933;-43
2020/12/12 02:15:29;;;;;;;;;;;6.60;84.70;;;;;;5008327;28;19929;-44
2020/12/12 02:17:55;;;;;;;;;;;6.60;84.70;;;;;;5007864;28;20277;-43
2020/12/12 02:20:22;;;;;;;;;;;6.60;84.70;;;;;;5006847;28;20373;-44
2020/12/12 02:22:48;;;;;;;;;;;6.60;84.70;;;;;;5006465;28;19933;-43
2020/12/12 02:25:14;;;;;;;;;;;6.60;84.80;;;;;;5005212;28;19929;-44
2020/12/12 02:27:40;;;;;;;;;;;6.60;84.80;;;;;;5005735;28;20016;-44
2020/12/12 02:30:07;;;;;;;;;;;6.60;84.80;;;;;;5006521;28;19932;-44
2020/12/12 02:32:33;;;;;;;;;;;6.60;84.70;;;;;;5005079;28;19933;-43
2020/12/12 02:35:00;;;;;;;;;;;6.60;84.70;;;;;;5007277;28;20398;-44
2020/12/12 02:37:28;;;;;;;;;;;6.60;84.70;;;;;;5008414;28;20311;-44
2020/12/12 02:39:55;;;;;;;;;;;6.60;84.60;;;;;;5010865;28;19932;-44
2020/12/12 02:42:21;;;;;;;;;;;6.60;84.70;;;;;;5008049;28;20301;-44
2020/12/12 02:44:54;;;;;;;;;;;6.60;84.70;;;;;;5005841;28;20292;-44
2020/12/12 02:47:23;;;;;;;;;;;6.60;84.80;;;;;;5005153;28;19925;-43
2020/12/12 02:49:57;;;;;;;;;;;6.60;84.70;;;;;;5004411;28;19929;-43
2020/12/12 02:52:24;;;;;;;;;;;6.60;84.70;;;;;;5007497;28;19929;-43
2020/12/12 02:54:50;;;;;;;;;;;6.60;84.70;;;;;;5004091;28;19936;-43
2020/12/12 02:57:16;;;;;;;;;;;6.60;84.80;;;;;;5007675;28;19925;-44
2020/12/12 02:59:42;;;;;;;;;;;6.60;84.60;;;;;;5006082;28;19929;-44
2020/12/12 03:02:09;;;;;;;;;;;6.60;84.80;;;;;;5006985;28;19949;-43
2020/12/12 03:04:35;;;;;;;;;;;6.60;84.80;;;;;;5009497;28;20298;-43
2020/12/12 03:07:01;;;;;;;;;;;6.60;84.70;;;;;;5001876;28;19932;-43
2020/12/12 03:09:27;;;;;;;;;;;6.60;84.80;;;;;;5003268;28;19933;-44
2020/12/12 03:11:53;;;;;;;;;;;6.60;84.70;;;;;;5004215;28;19925;-43
2020/12/12 03:14:19;;;;;;;;;;;6.60;84.80;;;;;;5009012;28;19925;-44
2020/12/12 03:16:45;;;;;;;;;;;6.60;84.90;;;;;;5007204;28;19929;-44
2020/12/12 03:19:12;;;;;;;;;;;6.60;84.90;;;;;;5007307;28;20353;-43
2020/12/12 03:21:38;;;;;;;;;;;6.60;84.90;;;;;;4999690;28;19933;-43
2020/12/12 03:24:05;;;;;;;;;;;6.60;84.90;;;;;;5007543;28;19932;-43
2020/12/12 03:26:31;;;;;;;;;;;6.60;84.90;;;;;;5004331;28;19936;-43
2020/12/12 03:28:57;;;;;;;;;;;6.60;84.80;;;;;;5003539;28;20250;-43
2020/12/12 03:31:24;;;;;;;;;;;6.60;84.80;;;;;;5006512;28;19925;-43
2020/12/12 03:33:50;;;;;;;;;;;6.60;84.80;;;;;;5006687;28;19925;-43
2020/12/12 03:36:16;;;;;;;;;;;6.60;84.90;;;;;;5008912;28;19933;-44
2020/12/12 03:38:42;;;;;;;;;;;6.60;84.90;;;;;;5004355;28;20308;-44
2020/12/12 03:41:09;;;;;;;;;;;6.60;84.90;;;;;;5005122;28;20369;-42
2020/12/12 03:43:35;;;;;;;;;;;6.60;84.90;;;;;;5007125;28;19929;-44
2020/12/12 03:46:02;;;;;;;;;;;6.60;84.90;;;;;;5008928;28;19933;-44
2020/12/12 03:48:28;;;;;;;;;;;6.60;84.90;;;;;;5021814;28;19929;-44
2020/12/12 03:50:55;;;;;;;;;;;6.70;84.90;;;;;;5003575;28;19995;-44
2020/12/12 03:53:21;;;;;;;;;;;6.70;84.90;;;;;;5008506;28;19925;-44
2020/12/12 03:55:47;;;;;;;;;;;6.70;84.90;;;;;;5003956;28;19936;-44
2020/12/12 03:58:15;;;;;;;;;;;6.70;84.90;;;;;;5005516;28;19925;-43
2020/12/12 04:00:41;;;;;;;;;;;6.60;85.00;;;;;;5005571;28;20516;-44
2020/12/12 04:03:08;;;;;;;;;;;6.70;84.90;;;;;;5005993;28;19968;-44
2020/12/12 04:05:34;;;;;;;;;;;6.70;84.90;;;;;;4987663;28;25925;-44
2020/12/12 04:08:00;;;;;;;;;;;6.70;85.00;;;;;;5007725;28;20911;-43
2020/12/12 04:10:26;;;;;;;;;;;6.60;85.00;;;;;;5004943;28;19940;-44
2020/12/12 04:12:53;;;;;;;;;;;6.60;84.90;;;;;;5005345;28;20000;-43
2020/12/12 04:15:19;;;;;;;;;;;6.60;85.00;;;;;;5002749;28;20292;-43
2020/12/12 04:17:45;;;;;;;;;;;6.60;85.00;;;;;;5007243;28;19926;-43
2020/12/12 04:20:13;;;;;;;;;;;6.60;85.20;;;;;;5006676;28;19937;-44
2020/12/12 04:22:39;;;;;;;;;;;6.60;85.20;;;;;;5004442;28;19925;-43
2020/12/12 04:25:05;;;;;;;;;;;6.60;85.20;;;;;;5006095;28;19941;-44
2020/12/12 04:27:31;;;;;;;;;;;6.60;85.00;;;;;;5008383;28;19925;-44
2020/12/12 04:29:58;;;;;;;;;;;6.70;84.90;;;;;;5005427;28;20292;-44
2020/12/12 04:32:24;;;;;;;;;;;6.70;84.90;;;;;;5005834;28;20305;-44
2020/12/12 04:34:50;;;;;;;;;;;6.70;84.90;;;;;;5006085;28;19929;-43
2020/12/12 04:37:16;;;;;;;;;;;6.70;85.00;;;;;;5009070;28;19933;-44
2020/12/12 04:39:42;;;;;;;;;;;6.60;85.00;;;;;;5010093;28;19939;-43
2020/12/12 04:42:10;;;;;;;;;;;6.70;85.00;;;;;;5006818;28;19929;-44
2020/12/12 04:44:37;;;;;;;;;;;6.60;84.90;;;;;;5008566;28;20368;-43
2020/12/12 04:47:03;;;;;;;;;;;6.70;85.00;;;;;;5009797;28;20415;-44
2020/12/12 04:49:30;;;;;;;;;;;6.70;84.90;;;;;;5008587;28;20067;-44
2020/12/12 04:51:57;;;;;;;;;;;6.70;85.00;;;;;;5009721;28;19933;-44
2020/12/12 04:54:23;;;;;;;;;;;6.70;84.90;;;;;;5020278;28;19929;-44
2020/12/12 04:56:51;;;;;;;;;;;6.70;84.90;;;;;;5013648;28;19929;-44
2020/12/12 04:59:20;;;;;;;;;;;6.70;84.90;;;;;;5009968;28;19932;-44
2020/12/12 05:01:47;;;;;;;;;;;6.70;85.00;;;;;;5010076;28;19925;-44
2020/12/12 05:04:13;;;;;;;;;;;6.70;85.00;;;;;;5003750;28;20381;-44
2020/12/12 05:06:39;;;;;;;;;;;6.70;84.90;;;;;;5009873;28;19937;-43
2020/12/12 05:09:05;;;;;;;;;;;6.70;84.90;;;;;;4999285;28;20293;-44
2020/12/12 05:11:36;;;;;;;;;;;6.70;84.80;;;;;;5008302;28;20373;-43
2020/12/12 05:14:07;;;;;;;;;;;6.70;84.90;;;;;;5007280;28;20269;-44
2020/12/12 05:16:33;;;;;;;;;;;6.70;84.90;;;;;;5007302;28;20477;-43
2020/12/12 05:19:01;;;;;;;;;;;6.70;84.90;;;;;;5009321;28;20379;-44
2020/12/12 05:21:27;;;;;;;;;;;6.70;84.90;;;;;;5007660;28;20274;-44
2020/12/12 05:23:55;;;;;;;;;;;6.70;84.90;;;;;;5003876;28;19948;-43
2020/12/12 05:26:21;;;;;;;;;;;6.70;84.90;;;;;;5009991;28;19933;-44
2020/12/12 05:28:47;;;;;;;;;;;6.70;84.80;;;;;;5006826;28;19930;-44
2020/12/12 05:31:15;;;;;;;;;;;6.70;84.90;;;;;;5010766;28;20158;-41
2020/12/12 05:33:42;;;;;;;;;;;6.70;84.90;;;;;;5005384;28;20389;-43
2020/12/12 05:36:10;;;;;;;;;;;6.60;84.80;;;;;;5008489;28;19933;-43
2020/12/12 05:38:36;;;;;;;;;;;6.60;84.90;;;;;;5008968;28;20357;-43
2020/12/12 05:41:03;;;;;;;;;;;6.60;85.00;;;;;;5012568;28;19940;-44
2020/12/12 05:43:34;;;;;;;;;;;6.60;85.00;;;;;;5010045;28;19925;-43
2020/12/12 05:46:00;;;;;;;;;;;6.60;84.90;;;;;;5017673;28;20324;-44
2020/12/12 05:48:27;;;;;;;;;;;6.60;84.90;;;;;;5009819;28;19967;-44
2020/12/12 05:50:53;;;;;;;;;;;6.60;84.90;;;;;;5007557;28;19940;-43
2020/12/12 05:53:20;;;;;;;;;;;6.60;84.80;;;;;;5011181;28;19929;-43
2020/12/12 05:55:46;;;;;;;;;;;6.60;84.80;;;;;;5009382;28;19926;-43
2020/12/12 05:58:14;;;;;;;;;;;6.60;84.70;;;;;;5009884;28;19932;-43
2020/12/12 06:00:40;;;;;;;;;;;6.60;84.70;;;;;;5003162;28;20408;-44
2020/12/12 06:03:27;;;;;;;;;;;6.60;84.80;;;;;;5007810;28;19933;-43
2020/12/12 06:06:00;;;;;;;;;;;6.60;84.90;;;;;;5007600;28;19972;-43
2020/12/12 06:08:34;;;;;;;;;;;6.60;84.90;;;;;;5008343;28;19944;-43
2020/12/12 06:11:03;;;;;;;;;;;6.60;84.90;;;;;;5006220;28;19960;-44
2020/12/12 06:13:34;;;;;;;;;;;6.60;84.90;;;;;;5008720;28;19936;-44
2020/12/12 06:16:02;;;;;;;;;;;6.60;84.90;;;;;;5007895;28;20377;-44
2020/12/12 06:19:07;;;;;;;;;;;6.60;84.90;;;;;;5025024;28;19925;-44
2020/12/12 06:21:35;;;;;;;;;;;6.60;84.80;;;;;;4992014;28;19930;-45
2020/12/12 06:24:03;;;;;;;;;;;6.60;84.80;;;;;;4975200;28;20293;-44
2020/12/12 06:26:44;;;;;;;;;;;6.60;84.80;;;;;;4997330;28;22843;-44
2020/12/12 06:29:14;;;;;;;;;;;6.60;84.80;;;;;;4988144;28;20281;-44
2020/12/12 06:31:42;;;;;;;;;;;6.60;84.80;;;;;;4982971;28;20390;-44
2020/12/12 06:34:08;;;;;;;;;;;6.60;84.60;;;;;;4987613;28;20389;-43
2020/12/12 06:36:35;;;;;;;;;;;6.60;84.80;;;;;;4981929;28;20479;-43
2020/12/12 06:39:20;;;;;;;;;;;6.60;84.80;;;;;;5003775;28;20016;-43
2020/12/12 06:41:48;;;;;;;;;;;6.60;84.80;;;;;;4999735;28;19925;-44
2020/12/12 06:44:29;;;;;;;;;;;6.60;84.80;;;;;;5005850;28;19925;-44
2020/12/12 06:46:55;;;;;;;;;;;6.60;84.80;;;;;;5009065;28;19929;-43
2020/12/12 06:49:21;;;;;;;;;;;6.60;84.80;;;;;;5007708;28;19983;-44
2020/12/12 06:51:48;;;;;;;;;;;6.60;84.80;;;;;;5007328;28;20448;-43
2020/12/12 06:54:14;;;;;;;;;;;6.60;84.70;;;;;;5005833;28;19925;-44
2020/12/12 06:56:43;;;;;;;;;;;6.60;84.80;;;;;;5008714;28;19925;-44
2020/12/12 06:59:28;;;;;;;;;;;6.60;84.70;;;;;;5003809;28;19929;-44
2020/12/12 07:01:55;;;;;;;;;;;6.60;84.70;;;;;;5006101;28;19936;-44
2020/12/12 07:04:24;;;;;;;;;;;6.70;84.70;;;;;;5006693;28;19929;-43
2020/12/12 07:07:01;;;;;;;;;;;6.70;84.70;;;;;;5007126;28;19933;-44
2020/12/12 07:09:27;;;;;;;;;;;6.70;84.70;;;;;;5006898;28;20621;-44
2020/12/12 07:11:54;;;;;;;;;;;6.70;84.70;;;;;;5003617;28;20055;-44
2020/12/12 07:14:21;;;;;;;;;;;6.70;84.80;;;;;;5005377;28;19929;-44
2020/12/12 07:16:53;;;;;;;;;;;6.70;84.90;;;;;;5000929;28;19930;-42
2020/12/12 07:19:32;;;;;;;;;;;6.70;84.80;;;;;;5019314;28;19933;-43
2020/12/12 07:21:59;;;;;;;;;;;6.70;84.70;;;;;;5003235;28;20568;-43
2020/12/12 07:24:26;;;;;;;;;;;6.70;84.80;;;;;;5002411;28;19980;-44
2020/12/12 07:26:52;;;;;;;;;;;6.70;84.80;;;;;;5003597;28;19929;-43
2020/12/12 07:29:18;;;;;;;;;;;6.70;84.80;;;;;;5004309;28;19925;-43
2020/12/12 07:31:45;;;;;;;;;;;6.70;84.80;;;;;;5004764;28;20508;-43
2020/12/12 07:34:15;;;;;;;;;;;6.70;84.90;;;;;;5002218;28;19932;-43
2020/12/12 07:36:41;;;;;;;;;;;6.70;84.90;;;;;;5005616;28;19925;-42
2020/12/12 07:39:11;;;;;;;;;;;6.70;84.90;;;;;;5004856;28;20016;-43
2020/12/12 07:41:45;;;;;;;;;;;6.70;84.90;;;;;;5007940;28;19929;-44
2020/12/12 07:44:14;;;;;;;;;;;6.70;84.90;;;;;;5010048;28;19929;-42
2020/12/12 07:46:57;;;;;;;;;;;6.70;84.90;;;;;;5010617;28;20301;-44
2020/12/12 07:49:27;;;;;;;;;;;6.70;85.00;;;;;;5000857;28;20005;-43
2020/12/12 07:52:00;;;;;;;;;;;6.70;84.90;;;;;;5006447;28;20781;-43
2020/12/12 07:54:30;;;;;;;;;;;6.70;84.90;;;;;;5005259;28;19925;-42
2020/12/12 07:56:57;;;;;;;;;;;6.70;84.90;;;;;;5007452;28;20373;-44
2020/12/12 07:59:23;;;;;;;;;;;6.70;84.90;;;;;;5005008;28;19929;-43
2020/12/12 08:01:49;;;;;;;;;;;6.70;84.90;;;;;;5008214;28;19929;-43
2020/12/12 08:04:22;;;;;;;;;;;6.70;85.00;;;;;;5009390;28;20348;-43
2020/12/12 08:06:49;;;;;;;;;;;6.70;85.00;;;;;;5007065;28;19940;-44
2020/12/12 08:09:25;;;;;;;;;;;6.80;85.00;;;;;;5006918;28;19933;-44
2020/12/12 08:11:54;;;;;;;;;;;6.80;84.90;;;;;;5023173;28;19932;-44
2020/12/12 08:14:21;;;;;;;;;;;6.80;84.90;;;;;;5010420;28;19940;-44
2020/12/12 08:16:54;;;;;;;;;;;6.80;85.00;;;;;;5011222;28;19933;-42
2020/12/12 08:19:20;;;;;;;;;;;6.80;85.00;;;;;;5010318;28;19933;-42
2020/12/12 08:21:48;;;;;;;;;;;6.80;85.10;;;;;;5011164;28;19925;-44
2020/12/12 08:24:15;;;;;;;;;;;6.80;85.10;;;;;;5015472;28;19932;-44
2020/12/12 08:26:41;;;;;;;;;;;6.80;85.10;;;;;;5012988;28;19932;-43
2020/12/12 08:29:09;;;;;;;;;;;6.80;85.10;;;;;;5006143;28;19925;-43
2020/12/12 08:31:37;;;;;;;;;;;6.90;85.10;;;;;;5009813;28;19929;-43
2020/12/12 08:34:04;;;;;;;;;;;6.90;85.10;;;;;;5010148;28;20454;-43
2020/12/12 08:36:30;;;;;;;;;;;6.90;85.10;;;;;;5007812;28;19929;-43
2020/12/12 08:38:59;;;;;;;;;;;6.90;85.20;;;;;;5011126;28;20378;-43
2020/12/12 08:41:29;;;;;;;;;;;6.90;85.10;;;;;;5010692;28;19932;-42
2020/12/12 08:43:55;;;;;;;;;;;6.90;85.10;;;;;;5006968;28;19936;-42
2020/12/12 08:46:21;;;;;;;;;;;6.90;85.10;;;;;;5009369;28;20274;-42
2020/12/12 08:48:47;;;;;;;;;;;6.90;85.10;;;;;;5010490;28;20401;-44
2020/12/12 08:51:15;;;;;;;;;;;6.90;85.10;;;;;;5007717;28;19925;-42
2020/12/12 08:53:43;;;;;;;;;;;6.90;85.10;;;;;;5009599;28;19940;-44
2020/12/12 08:56:14;;;;;;;;;;;6.90;85.20;;;;;;5008623;28;20409;-44
2020/12/12 08:58:44;;;;;;;;;;;6.90;85.20;;;;;;5009449;28;19933;-42
2020/12/12 09:01:24;;;;;;;;;;;6.90;85.20;;;;;;5007081;28;19940;-42
2020/12/12 09:03:54;;;;;;;;;;;6.90;85.20;;;;;;5009014;28;20380;-42
2020/12/12 09:06:20;;;;;;;;;;;7.00;85.30;;;;;;5005251;28;19930;-44
2020/12/12 09:08:47;;;;;;;;;;;7.00;85.30;;;;;;5008687;28;19940;-43
2020/12/12 09:11:13;;;;;;;;;;;7.00;85.20;;;;;;5008472;28;19935;-44
2020/12/12 09:13:40;;;;;;;;;;;7.00;85.20;;;;;;5010730;28;19944;-43
2020/12/12 09:16:10;;;;;;;;;;;7.00;85.20;;;;;;5002121;28;19985;-44
2020/12/12 09:18:46;;;;;;;;;;;7.00;85.30;;;;;;5006183;28;19933;-42
2020/12/12 09:21:12;;;;;;;;;;;7.10;85.40;;;;;;5005148;28;21086;-43
2020/12/12 09:23:39;;;;;;;;;;;7.10;85.30;;;;;;5006513;28;19933;-43
2020/12/12 09:26:05;;;;;;;;;;;7.10;85.40;;;;;;5007971;28;19925;-42
2020/12/12 09:28:32;;;;;;;;;;;7.10;85.40;;;;;;5008328;28;19932;-44
2020/12/12 09:31:01;;;;;;;;;;;7.10;85.40;;;;;;5009107;28;19929;-43
2020/12/12 09:33:27;;;;;;;;;;;7.10;85.40;;;;;;5008589;28;20011;-43
2020/12/12 09:35:53;;;;;;;;;;;7.10;85.30;;;;;;5004257;28;20263;-43
2020/12/12 09:38:19;;;;;;;;;;;7.10;85.30;;;;;;5008758;28;20593;-42
2020/12/12 09:40:52;;;;;;;;;;;7.20;85.40;;;;;;5016865;28;19932;-44
2020/12/12 09:43:34;;;;;;;;;;;7.20;85.40;;;;;;5008818;28;20542;-43
2020/12/12 09:46:00;;;;;;;;;;;7.20;85.40;;;;;;5009199;28;19932;-43
2020/12/12 09:48:28;;;;;;;;;;;7.20;85.30;;;;;;5011287;28;19929;-44
2020/12/12 09:50:54;;;;;;;;;;;7.20;85.30;;;;;;5008939;28;19940;-44
2020/12/12 09:53:21;;;;;;;;;;;7.20;85.20;;;;;;5006474;28;19956;-44
2020/12/12 09:55:51;;;;;;;;;;;7.30;85.20;;;;;;5012294;28;20352;-43
2020/12/12 09:58:17;;;;;;;;;;;7.20;85.10;;;;;;5010795;28;19929;-44
2020/12/12 10:00:43;;;;;;;;;;;7.20;85.20;;;;;;5023629;28;19930;-43
2020/12/12 10:03:10;;;;;;;;;;;7.20;85.20;;;;;;5012560;28;20040;-43
2020/12/12 10:05:36;;;;;;;;;;;7.20;85.30;;;;;;5010873;28;20010;-43
2020/12/12 10:08:04;;;;;;;;;;;7.20;85.30;;;;;;5010747;28;19929;-42
2020/12/12 10:10:30;;;;;;;;;;;7.30;85.20;;;;;;5008643;28;20281;-42
2020/12/12 10:12:57;;;;;;;;;;;7.30;85.20;;;;;;5006545;28;19929;-43
2020/12/12 10:15:23;;;;;;;;;;;7.30;85.10;;;;;;5008401;28;20423;-43
2020/12/12 10:17:50;;;;;;;;;;;7.30;85.10;;;;;;5008475;28;19930;-42
2020/12/12 10:20:17;;;;;;;;;;;7.30;85.10;;;;;;5001873;28;20292;-43
2020/12/12 10:22:43;;;;;;;;;;;7.40;85.10;;;;;;5001095;28;20317;-43
2020/12/12 10:25:10;;;;;;;;;;;7.40;85.00;;;;;;5004815;28;19925;-43
2020/12/12 10:27:37;;;;;;;;;;;7.40;85.10;;;;;;5003254;28;19951;-43
2020/12/12 10:30:04;;;;;;;;;;;7.40;85.10;;;;;;5002036;28;19937;-43
2020/12/12 10:32:31;;;;;;;;;;;7.40;85.10;;;;;;5002511;28;19960;-42
2020/12/12 10:34:57;;;;;;;;;;;7.40;85.10;;;;;;5002168;28;19972;-43
2020/12/12 10:37:24;;;;;;;;;;;7.40;85.10;;;;;;5011098;28;19936;-43
2020/12/12 10:42:19;;;;;;;;;;;7.50;85.10;;;;;;5004507;28;20032;-43
2020/12/12 10:44:45;;;;;;;;;;;7.50;85.00;;;;;;5008138;28;19933;-43
2020/12/12 10:47:12;;;;;;;;;;;7.50;85.00;;;;;;5006717;28;19936;-43
2020/12/12 10:49:38;;;;;;;;;;;7.50;84.90;;;;;;5000889;28;19925;-44
2020/12/12 10:52:06;;;;;;;;;;;7.50;84.90;;;;;;5007289;28;19929;-43
2020/12/12 10:54:32;;;;;;;;;;;7.50;84.80;;;;;;5006354;28;20568;-43
2020/12/12 10:56:59;;;;;;;;;;;7.50;84.70;;;;;;5009585;28;19925;-43
2020/12/12 10:59:25;;;;;;;;;;;7.50;84.70;;;;;;5007687;28;20036;-43
2020/12/12 11:01:52;;;;;;;;;;;7.50;84.70;;;;;;5007924;28;19926;-44
2020/12/12 11:04:18;;;;;;;;;;;7.50;84.70;;;;;;5008664;28;19929;-44
2020/12/12 11:06:45;;;;;;;;;;;7.50;84.60;;;;;;5010161;28;20329;-43
2020/12/12 11:09:11;;;;;;;;;;;7.50;84.60;;;;;;5007574;28;19933;-43
2020/12/12 11:11:38;;;;;;;;;;;7.50;84.50;;;;;;5007764;28;19929;-43
2020/12/12 11:14:05;;;;;;;;;;;7.50;84.50;;;;;;5007187;28;19929;-42
2020/12/12 11:16:31;;;;;;;;;;;7.50;84.60;;;;;;5010087;28;19929;-44
2020/12/12 11:18:57;;;;;;;;;;;7.50;84.60;;;;;;5006087;28;20678;-43
2020/12/12 11:21:27;;;;;;;;;;;7.50;84.60;;;;;;5006367;28;19979;-43
2020/12/12 11:23:53;;;;;;;;;;;7.60;84.50;;;;;;5009090;28;19936;-43
2020/12/12 11:26:19;;;;;;;;;;;7.60;84.50;;;;;;5001045;28;19929;-43
2020/12/12 11:28:46;;;;;;;;;;;7.60;84.60;;;;;;4999948;28;19934;-43
2020/12/12 11:31:16;;;;;;;;;;;7.60;84.60;;;;;;5003837;28;20350;-42
2020/12/12 11:33:44;;;;;;;;;;;7.60;84.70;;;;;;5000762;28;19968;-43
2020/12/12 11:46:51;;;;;;;;;;;7.70;84.80;;;;;;5012234;28;20001;-42
2020/12/12 11:49:18;;;;;;;;;;;7.70;84.80;;;;;;5010836;28;19925;-43
2020/12/12 11:51:45;;;;;;;;;;;7.70;84.80;;;;;;5012618;28;19941;-43
2020/12/12 11:54:11;;;;;;;;;;;7.70;84.80;;;;;;5010932;28;19936;-43
2020/12/12 11:56:37;;;;;;;;;;;7.70;84.80;;;;;;5015305;28;19925;-43
2020/12/12 11:59:03;;;;;;;;;;;7.80;84.70;;;;;;5014433;28;19932;-43
2020/12/12 12:01:32;;;;;;;;;;;7.80;84.70;;;;;;5029583;28;19929;-44
2020/12/12 12:03:58;;;;;;;;;;;7.80;84.50;;;;;;5011505;28;20016;-43
2020/12/12 12:06:24;;;;;;;;;;;7.80;84.50;;;;;;5017154;28;19932;-42
2020/12/12 12:11:31;;;;;;;;;;;7.80;84.50;;;;;;5015344;28;19935;-42
2020/12/12 12:13:58;;;;;;;;;;;7.80;84.60;;;;;;5014127;28;19932;-42
2020/12/12 12:16:24;;;;;;;;;;;7.90;84.70;;;;;;5014838;28;19929;-43
2020/12/12 12:18:50;;;;;;;;;;;7.90;84.70;;;;;;5013663;28;19929;-43
2020/12/12 12:21:17;;;;;;;;;;;7.90;84.70;;;;;;5016069;28;19932;-42
2020/12/12 12:23:43;;;;;;;;;;;7.90;84.60;;;;;;5014568;28;20011;-42
2020/12/12 12:26:09;;;;;;;;;;;7.90;84.60;;;;;;5015978;28;19943;-43
2020/12/12 12:28:35;;;;;;;;;;;7.90;84.60;;;;;;5012195;28;19929;-43
2020/12/12 12:31:02;;;;;;;;;;;7.90;84.60;;;;;;5013922;28;19929;-43
2020/12/12 12:33:28;;;;;;;;;;;8.00;84.60;;;;;;5010369;28;20386;-43
2020/12/12 12:35:54;;;;;;;;;;;8.00;84.60;;;;;;5017644;28;19940;-44
2020/12/12 12:38:21;;;;;;;;;;;8.00;84.50;;;;;;5013517;28;19926;-43
2020/12/12 12:40:48;;;;;;;;;;;8.00;84.50;;;;;;5029320;28;19929;-43
2020/12/12 12:43:14;;;;;;;;;;;8.00;84.50;;;;;;5013679;28;19933;-43
2020/12/12 12:45:40;;;;;;;;;;;8.00;84.50;;;;;;5013912;28;19936;-43
2020/12/12 12:48:07;;;;;;;;;;;8.00;84.50;;;;;;5013753;28;19984;-43
2020/12/12 12:50:38;;;;;;;;;;;8.00;84.50;;;;;;5013723;28;19983;-44
2020/12/12 12:53:22;;;;;;;;;;;8.00;84.40;;;;;;5012787;28;19940;-42
2020/12/12 12:55:48;;;;;;;;;;;8.00;84.40;;;;;;5011265;28;19933;-43
2020/12/12 12:58:14;;;;;;;;;;;8.00;84.30;;;;;;5008488;28;19929;-43
2020/12/12 13:00:40;;;;;;;;;;;8.00;84.40;;;;;;5010536;28;19933;-42
2020/12/12 13:03:07;;;;;;;;;;;8.00;84.40;;;;;;5014219;28;19930;-42
2020/12/12 13:05:33;;;;;;;;;;;8.00;84.50;;;;;;5011213;28;19978;-43
2020/12/12 13:07:59;;;;;;;;;;;8.00;84.50;;;;;;5010078;28;19925;-43
2020/12/12 13:10:28;;;;;;;;;;;8.00;84.50;;;;;;5009536;28;19925;-43
2020/12/12 13:12:54;;;;;;;;;;;8.00;84.40;;;;;;5010125;28;19932;-43
2020/12/12 13:15:26;;;;;;;;;;;8.00;84.40;;;;;;5010114;28;20022;-43
2020/12/12 13:17:53;;;;;;;;;;;8.00;84.30;;;;;;5009238;28;19931;-43
2020/12/12 13:20:25;;;;;;;;;;;8.00;84.30;;;;;;5006236;28;19933;-43
2020/12/12 13:22:52;;;;;;;;;;;8.00;84.30;;;;;;5007186;28;20385;-42
2020/12/12 13:25:18;;;;;;;;;;;8.00;84.30;;;;;;5009183;28;19929;-43
2020/12/12 13:27:44;;;;;;;;;;;8.00;84.30;;;;;;5010951;28;20051;-43
2020/12/12 13:30:16;;;;;;;;;;;8.00;84.50;;;;;;5003080;28;19948;-43
2020/12/12 13:32:43;;;;;;;;;;;8.00;84.50;;;;;;5008904;28;19933;-43
2020/12/12 13:35:10;;;;;;;;;;;8.00;84.50;;;;;;5009613;28;19963;-43
2020/12/12 13:37:36;;;;;;;;;;;8.00;84.50;;;;;;5005359;28;20012;-43
2020/12/12 13:40:03;;;;;;;;;;;8.00;84.50;;;;;;5022632;28;20374;-44
2020/12/12 13:42:29;;;;;;;;;;;8.00;84.50;;;;;;5006287;28;19936;-43
2020/12/12 13:44:55;;;;;;;;;;;8.00;84.50;;;;;;5007369;28;19933;-42
2020/12/12 13:47:22;;;;;;;;;;;8.00;84.40;;;;;;5004527;28;19926;-43
2020/12/12 13:49:48;;;;;;;;;;;8.00;84.40;;;;;;5008768;28;20036;-43
2020/12/12 13:52:14;;;;;;;;;;;8.00;84.30;;;;;;5005172;28;19937;-44
2020/12/12 13:54:40;;;;;;;;;;;8.00;84.30;;;;;;5008810;28;19932;-42
2020/12/12 13:57:08;;;;;;;;;;;8.00;84.40;;;;;;5007428;28;19926;-43
2020/12/12 13:59:35;;;;;;;;;;;8.00;84.40;;;;;;5008345;28;20301;-42
2020/12/12 14:02:01;;;;;;;;;;;8.00;84.40;;;;;;5004685;28;20372;-43
2020/12/12 14:04:29;;;;;;;;;;;8.00;84.50;;;;;;5005210;28;19940;-42
2020/12/12 14:06:59;;;;;;;;;;;8.00;84.50;;;;;;5008370;28;19929;-43
2020/12/12 14:09:38;;;;;;;;;;;8.00;84.60;;;;;;5008750;28;20282;-43
2020/12/12 14:23:03;;;;;;;;;;;8.00;84.40;;;;;;5008547;28;19929;-43
2020/12/12 14:25:37;;;;;;;;;;;8.00;84.60;;;;;;5006703;28;19931;-43
2020/12/12 14:28:25;;;;;;;;;;;8.00;84.60;;;;;;5024823;28;19933;-43
2020/12/12 14:30:52;;;;;;;;;;;8.00;84.50;;;;;;5007567;28;19932;-43
2020/12/12 14:33:19;;;;;;;;;;;8.00;84.50;;;;;;5009583;28;19933;-44
2020/12/12 14:35:46;;;;;;;;;;;8.00;84.50;;;;;;5004241;28;19937;-42
2020/12/12 14:38:13;;;;;;;;;;;8.00;84.50;;;;;;5010248;28;19929;-43
2020/12/12 14:40:39;;;;;;;;;;;8.00;84.50;;;;;;5004158;28;19929;-43
2020/12/12 14:43:05;;;;;;;;;;;8.00;84.50;;;;;;5008066;28;20418;-43
2020/12/12 14:45:32;;;;;;;;;;;8.00;84.60;;;;;;5007005;28;19926;-44
2020/12/12 14:47:59;;;;;;;;;;;8.00;84.60;;;;;;5008694;28;19925;-43
2020/12/12 14:50:31;;;;;;;;;;;8.00;84.60;;;;;;5009604;28;19929;-42
2020/12/12 14:52:57;;;;;;;;;;;8.00;84.60;;;;;;5004623;28;19935;-43
2020/12/12 14:55:23;;;;;;;;;;;8.00;84.60;;;;;;5004425;28;20215;-44
2020/12/12 14:57:50;;;;;;;;;;;8.00;84.60;;;;;;5006961;28;19940;-43
2020/12/12 15:00:17;;;;;;;;;;;7.90;84.70;;;;;;5005582;28;19925;-44